Terminal Aerodrome Forecast
Issued by NWS

Home | Current Version | Previous Version | Text Only | Print | Product List | Glossary On
Versions: 1 2 3 4 5 6 7 8 9 10 11 12 13 14 15
000
FTUS44 KEPZ 011100
TAFLRU
TAF
KLRU 011120Z 0112/0212 28010KT P6SM SKC
     FM011800 25016G26KT P6SM SKC
     FM020100 28011KT P6SM SKC=

USA.gov is the U.S. government's official web portal to all federal, state and local government web resources and services.